sensor_id;sensor_type;location;lat;lon;timestamp;P1;durP1;ratioP1;P2;durP2;ratioP2
61640;SDS011;62201;49.966;8.342;2023-03-14T00:01:58;3.03;;;0.70;;
61640;SDS011;62201;49.966;8.342;2023-03-14T00:04:23;3.78;;;0.70;;
61640;SDS011;62201;49.966;8.342;2023-03-14T00:06:49;4.35;;;0.70;;
61640;SDS011;62201;49.966;8.342;2023-03-14T00:09:14;4.03;;;1.00;;
61640;SDS011;62201;49.966;8.342;2023-03-14T00:11:41;3.15;;;0.70;;
61640;SDS011;62201;49.966;8.342;2023-03-14T00:14:06;2.55;;;0.73;;
61640;SDS011;62201;49.966;8.342;2023-03-14T00:16:31;3.85;;;0.95;;
61640;SDS011;62201;49.966;8.342;2023-03-14T00:19:00;4.15;;;0.80;;
61640;SDS011;62201;49.966;8.342;2023-03-14T00:21:26;3.47;;;0.70;;
61640;SDS011;62201;49.966;8.342;2023-03-14T00:23:51;3.78;;;0.90;;
61640;SDS011;62201;49.966;8.342;2023-03-14T00:26:17;4.55;;;0.90;;
61640;SDS011;62201;49.966;8.342;2023-03-14T00:28:44;2.65;;;0.90;;
61640;SDS011;62201;49.966;8.342;2023-03-14T00:31:11;5.07;;;0.90;;
61640;SDS011;62201;49.966;8.342;2023-03-14T00:33:38;3.70;;;1.00;;
61640;SDS011;62201;49.966;8.342;2023-03-14T00:36:08;6.22;;;1.20;;
61640;SDS011;62201;49.966;8.342;2023-03-14T00:38:36;5.90;;;0.90;;
61640;SDS011;62201;49.966;8.342;2023-03-14T00:41:03;5.13;;;0.95;;
61640;SDS011;62201;49.966;8.342;2023-03-14T00:43:29;5.95;;;1.10;;
61640;SDS011;62201;49.966;8.342;2023-03-14T00:45:55;4.65;;;1.13;;
61640;SDS011;62201;49.966;8.342;2023-03-14T00:48:20;9.05;;;1.23;;
61640;SDS011;62201;49.966;8.342;2023-03-14T00:50:46;5.93;;;1.00;;
61640;SDS011;62201;49.966;8.342;2023-03-14T00:53:11;5.68;;;1.00;;
61640;SDS011;62201;49.966;8.342;2023-03-14T00:55:40;5.05;;;0.98;;
61640;SDS011;62201;49.966;8.342;2023-03-14T00:58:07;7.57;;;1.30;;
61640;SDS011;62201;49.966;8.342;2023-03-14T01:00:33;11.10;;;1.83;;
61640;SDS011;62201;49.966;8.342;2023-03-14T01:02:59;5.25;;;1.52;;
61640;SDS011;62201;49.966;8.342;2023-03-14T01:05:24;7.30;;;1.10;;
61640;SDS011;62201;49.966;8.342;2023-03-14T01:07:50;4.60;;;1.20;;
61640;SDS011;62201;49.966;8.342;2023-03-14T01:10:15;5.82;;;1.48;;
61640;SDS011;62201;49.966;8.342;2023-03-14T01:12:41;5.35;;;1.15;;
61640;SDS011;62201;49.966;8.342;2023-03-14T01:15:07;3.95;;;1.10;;
61640;SDS011;62201;49.966;8.342;2023-03-14T01:17:32;4.75;;;0.93;;
61640;SDS011;62201;49.966;8.342;2023-03-14T01:19:58;5.18;;;0.90;;
61640;SDS011;62201;49.966;8.342;2023-03-14T01:22:25;6.28;;;1.50;;
61640;SDS011;62201;49.966;8.342;2023-03-14T01:24:50;6.82;;;1.30;;
61640;SDS011;62201;49.966;8.342;2023-03-14T01:27:15;4.68;;;0.80;;
61640;SDS011;62201;49.966;8.342;2023-03-14T01:29:41;5.93;;;1.40;;
61640;SDS011;62201;49.966;8.342;2023-03-14T01:32:06;6.18;;;0.90;;
61640;SDS011;62201;49.966;8.342;2023-03-14T01:34:31;7.85;;;1.20;;
61640;SDS011;62201;49.966;8.342;2023-03-14T01:36:57;6.55;;;1.25;;
61640;SDS011;62201;49.966;8.342;2023-03-14T01:39:22;5.13;;;1.05;;
61640;SDS011;62201;49.966;8.342;2023-03-14T01:41:47;5.68;;;1.08;;
61640;SDS011;62201;49.966;8.342;2023-03-14T01:44:13;6.63;;;1.25;;
61640;SDS011;62201;49.966;8.342;2023-03-14T01:46:39;5.20;;;1.20;;
61640;SDS011;62201;49.966;8.342;2023-03-14T01:49:17;7.70;;;1.30;;
61640;SDS011;62201;49.966;8.342;2023-03-14T01:51:56;5.85;;;1.35;;
61640;SDS011;62201;49.966;8.342;2023-03-14T01:54:37;5.78;;;1.20;;
61640;SDS011;62201;49.966;8.342;2023-03-14T01:57:17;5.78;;;1.08;;
61640;SDS011;62201;49.966;8.342;2023-03-14T01:59:48;4.00;;;1.02;;
61640;SDS011;62201;49.966;8.342;2023-03-14T02:02:17;5.95;;;1.23;;
61640;SDS011;62201;49.966;8.342;2023-03-14T02:04:43;5.85;;;1.05;;
61640;SDS011;62201;49.966;8.342;2023-03-14T02:07:13;7.40;;;1.60;;
61640;SDS011;62201;49.966;8.342;2023-03-14T02:09:42;5.25;;;1.27;;
61640;SDS011;62201;49.966;8.342;2023-03-14T02:12:11;5.60;;;1.40;;
61640;SDS011;62201;49.966;8.342;2023-03-14T02:14:38;5.63;;;1.17;;
61640;SDS011;62201;49.966;8.342;2023-03-14T02:17:05;5.97;;;1.40;;
61640;SDS011;62201;49.966;8.342;2023-03-14T02:22:42;5.85;;;1.10;;
61640;SDS011;62201;49.966;8.342;2023-03-14T02:25:22;4.32;;;1.10;;
61640;SDS011;62201;49.966;8.342;2023-03-14T02:27:51;5.60;;;1.40;;
61640;SDS011;62201;49.966;8.342;2023-03-14T02:30:21;7.68;;;1.20;;
61640;SDS011;62201;49.966;8.342;2023-03-14T02:32:53;7.03;;;1.42;;
61640;SDS011;62201;49.966;8.342;2023-03-14T02:35:24;3.85;;;0.90;;
61640;SDS011;62201;49.966;8.342;2023-03-14T02:40:43;5.70;;;1.08;;
61640;SDS011;62201;49.966;8.342;2023-03-14T02:43:08;4.95;;;1.10;;
61640;SDS011;62201;49.966;8.342;2023-03-14T02:45:38;4.75;;;1.17;;
61640;SDS011;62201;49.966;8.342;2023-03-14T02:48:15;7.20;;;1.30;;
61640;SDS011;62201;49.966;8.342;2023-03-14T02:50:44;4.57;;;0.88;;
61640;SDS011;62201;49.966;8.342;2023-03-14T02:53:12;6.53;;;1.65;;
61640;SDS011;62201;49.966;8.342;2023-03-14T02:55:44;9.27;;;1.85;;
61640;SDS011;62201;49.966;8.342;2023-03-14T02:58:10;9.48;;;1.33;;
61640;SDS011;62201;49.966;8.342;2023-03-14T03:00:35;5.20;;;1.30;;
61640;SDS011;62201;49.966;8.342;2023-03-14T03:03:01;3.47;;;1.00;;
61640;SDS011;62201;49.966;8.342;2023-03-14T03:05:26;6.30;;;1.08;;
61640;SDS011;62201;49.966;8.342;2023-03-14T03:07:51;6.00;;;1.42;;
61640;SDS011;62201;49.966;8.342;2023-03-14T03:10:17;6.82;;;1.40;;
61640;SDS011;62201;49.966;8.342;2023-03-14T03:12:42;6.78;;;1.30;;
61640;SDS011;62201;49.966;8.342;2023-03-14T03:15:09;9.15;;;1.20;;
61640;SDS011;62201;49.966;8.342;2023-03-14T03:17:34;5.82;;;1.05;;
61640;SDS011;62201;49.966;8.342;2023-03-14T03:20:00;7.15;;;1.15;;
61640;SDS011;62201;49.966;8.342;2023-03-14T03:22:25;4.25;;;1.10;;
61640;SDS011;62201;49.966;8.342;2023-03-14T03:24:51;7.05;;;1.02;;
61640;SDS011;62201;49.966;8.342;2023-03-14T03:27:16;7.63;;;1.10;;
61640;SDS011;62201;49.966;8.342;2023-03-14T03:29:41;4.65;;;1.40;;
61640;SDS011;62201;49.966;8.342;2023-03-14T03:32:07;4.72;;;1.00;;
61640;SDS011;62201;49.966;8.342;2023-03-14T03:34:32;5.65;;;1.08;;
61640;SDS011;62201;49.966;8.342;2023-03-14T03:36:58;6.35;;;1.02;;
61640;SDS011;62201;49.966;8.342;2023-03-14T03:39:23;6.43;;;1.33;;
61640;SDS011;62201;49.966;8.342;2023-03-14T03:41:49;6.15;;;1.10;;
61640;SDS011;62201;49.966;8.342;2023-03-14T03:44:14;6.63;;;1.38;;
61640;SDS011;62201;49.966;8.342;2023-03-14T03:46:39;5.40;;;0.88;;
61640;SDS011;62201;49.966;8.342;2023-03-14T03:49:05;6.85;;;1.23;;
61640;SDS011;62201;49.966;8.342;2023-03-14T03:51:30;5.13;;;1.10;;
61640;SDS011;62201;49.966;8.342;2023-03-14T03:53:56;8.30;;;1.17;;
61640;SDS011;62201;49.966;8.342;2023-03-14T03:56:22;6.53;;;1.00;;
61640;SDS011;62201;49.966;8.342;2023-03-14T03:58:47;5.43;;;1.15;;
61640;SDS011;62201;49.966;8.342;2023-03-14T04:01:12;5.65;;;1.15;;
61640;SDS011;62201;49.966;8.342;2023-03-14T04:03:38;6.95;;;1.38;;
61640;SDS011;62201;49.966;8.342;2023-03-14T04:06:05;6.25;;;1.38;;
61640;SDS011;62201;49.966;8.342;2023-03-14T04:08:32;7.72;;;2.65;;
61640;SDS011;62201;49.966;8.342;2023-03-14T04:10:59;4.25;;;1.08;;
61640;SDS011;62201;49.966;8.342;2023-03-14T04:13:26;5.25;;;1.02;;
61640;SDS011;62201;49.966;8.342;2023-03-14T04:15:52;7.45;;;1.30;;
61640;SDS011;62201;49.966;8.342;2023-03-14T04:18:17;6.00;;;1.27;;
61640;SDS011;62201;49.966;8.342;2023-03-14T04:20:43;7.47;;;1.30;;
61640;SDS011;62201;49.966;8.342;2023-03-14T04:23:08;4.80;;;1.00;;
61640;SDS011;62201;49.966;8.342;2023-03-14T04:25:34;4.97;;;1.40;;
61640;SDS011;62201;49.966;8.342;2023-03-14T04:27:59;9.60;;;1.10;;
61640;SDS011;62201;49.966;8.342;2023-03-14T04:30:25;7.75;;;1.45;;
61640;SDS011;62201;49.966;8.342;2023-03-14T04:32:50;8.38;;;1.10;;
61640;SDS011;62201;49.966;8.342;2023-03-14T04:35:15;5.28;;;1.30;;
61640;SDS011;62201;49.966;8.342;2023-03-14T04:37:41;6.57;;;1.13;;
61640;SDS011;62201;49.966;8.342;2023-03-14T04:40:08;6.97;;;1.27;;
61640;SDS011;62201;49.966;8.342;2023-03-14T04:42:34;8.50;;;1.92;;
61640;SDS011;62201;49.966;8.342;2023-03-14T04:45:00;8.52;;;1.25;;
61640;SDS011;62201;49.966;8.342;2023-03-14T04:47:25;5.32;;;1.00;;
61640;SDS011;62201;49.966;8.342;2023-03-14T04:49:51;6.38;;;0.95;;
61640;SDS011;62201;49.966;8.342;2023-03-14T04:52:16;6.63;;;1.10;;
61640;SDS011;62201;49.966;8.342;2023-03-14T04:54:42;6.15;;;1.38;;
61640;SDS011;62201;49.966;8.342;2023-03-14T04:57:07;5.05;;;1.02;;
61640;SDS011;62201;49.966;8.342;2023-03-14T04:59:32;3.08;;;0.80;;
61640;SDS011;62201;49.966;8.342;2023-03-14T05:01:58;8.32;;;1.00;;
61640;SDS011;62201;49.966;8.342;2023-03-14T05:04:23;6.57;;;0.80;;
61640;SDS011;62201;49.966;8.342;2023-03-14T05:06:48;4.20;;;0.90;;
61640;SDS011;62201;49.966;8.342;2023-03-14T05:09:14;6.65;;;1.08;;
61640;SDS011;62201;49.966;8.342;2023-03-14T05:11:40;3.05;;;0.80;;
61640;SDS011;62201;49.966;8.342;2023-03-14T05:14:05;4.50;;;0.80;;
61640;SDS011;62201;49.966;8.342;2023-03-14T05:16:31;10.02;;;2.15;;
61640;SDS011;62201;49.966;8.342;2023-03-14T05:18:56;4.82;;;1.00;;
61640;SDS011;62201;49.966;8.342;2023-03-14T05:21:21;4.80;;;0.90;;
61640;SDS011;62201;49.966;8.342;2023-03-14T05:23:47;4.80;;;0.98;;
61640;SDS011;62201;49.966;8.342;2023-03-14T05:26:12;6.18;;;1.17;;
61640;SDS011;62201;49.966;8.342;2023-03-14T05:28:37;4.80;;;1.02;;
61640;SDS011;62201;49.966;8.342;2023-03-14T05:31:06;7.78;;;1.52;;
61640;SDS011;62201;49.966;8.342;2023-03-14T05:33:32;4.47;;;1.05;;
61640;SDS011;62201;49.966;8.342;2023-03-14T05:35:57;3.83;;;0.90;;
61640;SDS011;62201;49.966;8.342;2023-03-14T05:38:22;4.82;;;0.90;;
61640;SDS011;62201;49.966;8.342;2023-03-14T05:40:48;4.40;;;0.90;;
61640;SDS011;62201;49.966;8.342;2023-03-14T05:43:13;5.75;;;1.42;;
61640;SDS011;62201;49.966;8.342;2023-03-14T05:45:40;4.68;;;1.02;;
61640;SDS011;62201;49.966;8.342;2023-03-14T05:48:06;6.60;;;1.42;;
61640;SDS011;62201;49.966;8.342;2023-03-14T05:50:31;5.90;;;0.77;;
61640;SDS011;62201;49.966;8.342;2023-03-14T05:52:56;4.35;;;1.13;;
61640;SDS011;62201;49.966;8.342;2023-03-14T05:55:22;5.05;;;0.95;;
61640;SDS011;62201;49.966;8.342;2023-03-14T05:57:47;5.30;;;0.90;;
61640;SDS011;62201;49.966;8.342;2023-03-14T06:00:13;3.40;;;0.75;;
61640;SDS011;62201;49.966;8.342;2023-03-14T06:02:38;5.32;;;0.90;;
61640;SDS011;62201;49.966;8.342;2023-03-14T06:05:04;4.63;;;1.00;;
61640;SDS011;62201;49.966;8.342;2023-03-14T06:07:29;4.30;;;0.93;;
61640;SDS011;62201;49.966;8.342;2023-03-14T06:09:55;5.35;;;0.90;;
61640;SDS011;62201;49.966;8.342;2023-03-14T06:12:20;3.75;;;0.88;;
61640;SDS011;62201;49.966;8.342;2023-03-14T06:14:45;5.20;;;0.93;;
61640;SDS011;62201;49.966;8.342;2023-03-14T06:17:11;4.28;;;1.10;;
61640;SDS011;62201;49.966;8.342;2023-03-14T06:19:36;3.25;;;0.80;;
61640;SDS011;62201;49.966;8.342;2023-03-14T06:22:02;3.65;;;0.90;;
61640;SDS011;62201;49.966;8.342;2023-03-14T06:24:27;5.25;;;0.85;;
61640;SDS011;62201;49.966;8.342;2023-03-14T06:26:52;4.65;;;0.95;;
61640;SDS011;62201;49.966;8.342;2023-03-14T06:29:18;3.80;;;0.90;;
61640;SDS011;62201;49.966;8.342;2023-03-14T06:31:43;6.55;;;1.27;;
61640;SDS011;62201;49.966;8.342;2023-03-14T06:34:08;2.58;;;0.90;;
61640;SDS011;62201;49.966;8.342;2023-03-14T06:36:34;4.65;;;0.98;;
61640;SDS011;62201;49.966;8.342;2023-03-14T06:38:59;3.67;;;0.80;;
61640;SDS011;62201;49.966;8.342;2023-03-14T06:41:24;5.82;;;1.15;;
61640;SDS011;62201;49.966;8.342;2023-03-14T06:43:51;1.85;;;0.52;;
61640;SDS011;62201;49.966;8.342;2023-03-14T06:46:17;4.22;;;0.70;;
61640;SDS011;62201;49.966;8.342;2023-03-14T06:48:42;2.72;;;0.80;;
61640;SDS011;62201;49.966;8.342;2023-03-14T06:51:07;3.95;;;0.90;;
61640;SDS011;62201;49.966;8.342;2023-03-14T06:53:33;2.85;;;0.77;;
61640;SDS011;62201;49.966;8.342;2023-03-14T06:55:58;2.55;;;0.63;;
61640;SDS011;62201;49.966;8.342;2023-03-14T06:58:24;5.65;;;1.00;;
61640;SDS011;62201;49.966;8.342;2023-03-14T07:00:49;1.60;;;0.80;;
61640;SDS011;62201;49.966;8.342;2023-03-14T07:03:15;3.35;;;0.80;;
61640;SDS011;62201;49.966;8.342;2023-03-14T07:05:40;4.18;;;0.93;;
61640;SDS011;62201;49.966;8.342;2023-03-14T07:08:06;3.95;;;0.70;;
61640;SDS011;62201;49.966;8.342;2023-03-14T07:10:32;2.42;;;0.80;;
61640;SDS011;62201;49.966;8.342;2023-03-14T07:12:58;3.35;;;0.70;;
61640;SDS011;62201;49.966;8.342;2023-03-14T07:15:23;2.67;;;0.68;;
61640;SDS011;62201;49.966;8.342;2023-03-14T07:17:49;3.85;;;1.00;;
61640;SDS011;62201;49.966;8.342;2023-03-14T07:20:14;4.70;;;0.70;;
61640;SDS011;62201;49.966;8.342;2023-03-14T07:22:40;2.45;;;0.80;;
61640;SDS011;62201;49.966;8.342;2023-03-14T07:25:05;2.53;;;0.77;;
61640;SDS011;62201;49.966;8.342;2023-03-14T07:27:31;4.07;;;0.50;;
61640;SDS011;62201;49.966;8.342;2023-03-14T07:29:56;3.45;;;0.68;;
61640;SDS011;62201;49.966;8.342;2023-03-14T07:32:22;6.13;;;0.93;;
61640;SDS011;62201;49.966;8.342;2023-03-14T07:34:47;2.63;;;0.85;;
61640;SDS011;62201;49.966;8.342;2023-03-14T07:37:12;2.85;;;1.10;;
61640;SDS011;62201;49.966;8.342;2023-03-14T07:39:38;4.38;;;0.80;;
61640;SDS011;62201;49.966;8.342;2023-03-14T07:42:03;3.70;;;0.80;;
61640;SDS011;62201;49.966;8.342;2023-03-14T07:44:28;2.33;;;1.13;;
61640;SDS011;62201;49.966;8.342;2023-03-14T07:46:54;3.35;;;0.90;;
61640;SDS011;62201;49.966;8.342;2023-03-14T07:49:19;3.85;;;0.60;;
61640;SDS011;62201;49.966;8.342;2023-03-14T07:51:47;3.10;;;0.80;;
61640;SDS011;62201;49.966;8.342;2023-03-14T07:54:13;4.63;;;0.90;;
61640;SDS011;62201;49.966;8.342;2023-03-14T07:56:38;4.63;;;0.73;;
61640;SDS011;62201;49.966;8.342;2023-03-14T07:59:04;2.92;;;0.85;;
61640;SDS011;62201;49.966;8.342;2023-03-14T08:01:29;3.08;;;1.00;;
61640;SDS011;62201;49.966;8.342;2023-03-14T08:03:54;3.90;;;0.70;;
61640;SDS011;62201;49.966;8.342;2023-03-14T08:06:20;3.83;;;0.80;;
61640;SDS011;62201;49.966;8.342;2023-03-14T08:08:45;3.70;;;0.75;;
61640;SDS011;62201;49.966;8.342;2023-03-14T08:11:11;2.47;;;0.70;;
61640;SDS011;62201;49.966;8.342;2023-03-14T08:13:36;2.25;;;0.73;;
61640;SDS011;62201;49.966;8.342;2023-03-14T08:16:02;3.85;;;0.77;;
61640;SDS011;62201;49.966;8.342;2023-03-14T08:18:29;2.75;;;0.70;;
61640;SDS011;62201;49.966;8.342;2023-03-14T08:20:54;4.65;;;1.00;;
61640;SDS011;62201;49.966;8.342;2023-03-14T08:23:19;3.17;;;0.80;;
61640;SDS011;62201;49.966;8.342;2023-03-14T08:25:45;3.28;;;0.88;;
61640;SDS011;62201;49.966;8.342;2023-03-14T08:28:13;4.07;;;0.85;;
61640;SDS011;62201;49.966;8.342;2023-03-14T08:30:38;2.85;;;0.85;;
61640;SDS011;62201;49.966;8.342;2023-03-14T08:33:03;3.78;;;0.80;;
61640;SDS011;62201;49.966;8.342;2023-03-14T08:35:29;2.78;;;0.80;;
61640;SDS011;62201;49.966;8.342;2023-03-14T08:37:54;1.92;;;0.60;;
61640;SDS011;62201;49.966;8.342;2023-03-14T08:40:20;2.20;;;0.50;;
61640;SDS011;62201;49.966;8.342;2023-03-14T08:42:46;2.30;;;0.60;;
61640;SDS011;62201;49.966;8.342;2023-03-14T08:45:12;1.13;;;0.60;;
61640;SDS011;62201;49.966;8.342;2023-03-14T08:47:39;3.38;;;0.70;;
61640;SDS011;62201;49.966;8.342;2023-03-14T08:50:05;1.73;;;0.55;;
61640;SDS011;62201;49.966;8.342;2023-03-14T08:52:32;1.92;;;0.68;;
61640;SDS011;62201;49.966;8.342;2023-03-14T08:54:58;3.65;;;0.65;;
61640;SDS011;62201;49.966;8.342;2023-03-14T08:57:23;1.15;;;0.50;;
61640;SDS011;62201;49.966;8.342;2023-03-14T08:59:52;2.28;;;0.60;;
61640;SDS011;62201;49.966;8.342;2023-03-14T09:02:19;1.48;;;0.40;;
61640;SDS011;62201;49.966;8.342;2023-03-14T09:04:45;1.40;;;0.70;;
61640;SDS011;62201;49.966;8.342;2023-03-14T09:07:10;1.50;;;0.50;;
61640;SDS011;62201;49.966;8.342;2023-03-14T09:09:36;3.55;;;0.65;;
61640;SDS011;62201;49.966;8.342;2023-03-14T09:12:01;3.70;;;0.47;;
61640;SDS011;62201;49.966;8.342;2023-03-14T09:14:26;2.03;;;0.45;;
61640;SDS011;62201;49.966;8.342;2023-03-14T09:16:52;1.40;;;0.40;;
61640;SDS011;62201;49.966;8.342;2023-03-14T09:19:17;1.10;;;0.43;;
61640;SDS011;62201;49.966;8.342;2023-03-14T09:21:42;1.52;;;0.50;;
61640;SDS011;62201;49.966;8.342;2023-03-14T09:24:08;1.55;;;0.50;;
61640;SDS011;62201;49.966;8.342;2023-03-14T09:26:33;1.35;;;0.40;;
61640;SDS011;62201;49.966;8.342;2023-03-14T09:28:58;1.65;;;0.57;;
61640;SDS011;62201;49.966;8.342;2023-03-14T09:31:24;1.70;;;0.68;;
61640;SDS011;62201;49.966;8.342;2023-03-14T09:33:49;1.13;;;0.45;;
61640;SDS011;62201;49.966;8.342;2023-03-14T09:36:15;5.35;;;0.70;;
61640;SDS011;62201;49.966;8.342;2023-03-14T09:38:40;1.25;;;0.40;;
61640;SDS011;62201;49.966;8.342;2023-03-14T09:41:16;1.77;;;0.45;;
61640;SDS011;62201;49.966;8.342;2023-03-14T09:43:46;1.58;;;0.43;;
61640;SDS011;62201;49.966;8.342;2023-03-14T09:46:16;0.82;;;0.30;;
61640;SDS011;62201;49.966;8.342;2023-03-14T09:48:41;1.58;;;0.50;;
61640;SDS011;62201;49.966;8.342;2023-03-14T09:51:13;3.53;;;0.50;;
61640;SDS011;62201;49.966;8.342;2023-03-14T09:53:42;2.33;;;0.40;;
61640;SDS011;62201;49.966;8.342;2023-03-14T09:56:14;2.13;;;0.50;;
61640;SDS011;62201;49.966;8.342;2023-03-14T09:58:44;3.33;;;0.50;;
61640;SDS011;62201;49.966;8.342;2023-03-14T10:01:13;1.20;;;0.45;;
61640;SDS011;62201;49.966;8.342;2023-03-14T10:03:41;1.80;;;0.50;;
61640;SDS011;62201;49.966;8.342;2023-03-14T10:06:12;2.45;;;0.60;;
61640;SDS011;62201;49.966;8.342;2023-03-14T10:08:41;0.65;;;0.28;;
61640;SDS011;62201;49.966;8.342;2023-03-14T10:11:12;1.95;;;0.40;;
61640;SDS011;62201;49.966;8.342;2023-03-14T10:13:47;1.52;;;0.70;;
61640;SDS011;62201;49.966;8.342;2023-03-14T10:16:14;2.25;;;0.73;;
61640;SDS011;62201;49.966;8.342;2023-03-14T10:18:42;2.10;;;0.60;;
61640;SDS011;62201;49.966;8.342;2023-03-14T10:21:28;1.30;;;0.50;;
61640;SDS011;62201;49.966;8.342;2023-03-14T10:24:07;1.13;;;0.32;;
61640;SDS011;62201;49.966;8.342;2023-03-14T10:26:34;0.95;;;0.70;;
61640;SDS011;62201;49.966;8.342;2023-03-14T10:29:04;2.15;;;0.65;;
61640;SDS011;62201;49.966;8.342;2023-03-14T10:31:49;1.00;;;0.60;;
61640;SDS011;62201;49.966;8.342;2023-03-14T10:34:23;1.65;;;0.60;;
61640;SDS011;62201;49.966;8.342;2023-03-14T10:36:54;0.93;;;0.43;;
61640;SDS011;62201;49.966;8.342;2023-03-14T10:39:25;1.38;;;0.40;;
61640;SDS011;62201;49.966;8.342;2023-03-14T10:42:25;3.03;;;0.40;;
61640;SDS011;62201;49.966;8.342;2023-03-14T10:44:55;0.65;;;0.35;;
61640;SDS011;62201;49.966;8.342;2023-03-14T10:47:24;1.30;;;0.60;;
61640;SDS011;62201;49.966;8.342;2023-03-14T10:49:51;1.23;;;0.50;;
61640;SDS011;62201;49.966;8.342;2023-03-14T10:52:21;1.70;;;0.40;;
61640;SDS011;62201;49.966;8.342;2023-03-14T10:54:59;1.55;;;0.60;;
61640;SDS011;62201;49.966;8.342;2023-03-14T10:57:26;0.77;;;0.40;;
61640;SDS011;62201;49.966;8.342;2023-03-14T10:59:53;0.77;;;0.40;;
61640;SDS011;62201;49.966;8.342;2023-03-14T11:02:31;0.57;;;0.30;;
61640;SDS011;62201;49.966;8.342;2023-03-14T11:05:11;1.52;;;0.40;;
61640;SDS011;62201;49.966;8.342;2023-03-14T11:07:45;2.35;;;0.30;;
61640;SDS011;62201;49.966;8.342;2023-03-14T11:21:32;1.10;;;0.40;;
61640;SDS011;62201;49.966;8.342;2023-03-14T11:24:13;0.82;;;0.30;;
61640;SDS011;62201;49.966;8.342;2023-03-14T11:27:00;1.70;;;0.40;;
61640;SDS011;62201;49.966;8.342;2023-03-14T11:32:26;1.25;;;0.20;;
61640;SDS011;62201;49.966;8.342;2023-03-14T11:35:41;0.43;;;0.20;;
61640;SDS011;62201;49.966;8.342;2023-03-14T11:40:49;0.47;;;0.20;;
61640;SDS011;62201;49.966;8.342;2023-03-14T11:43:18;3.13;;;0.40;;
61640;SDS011;62201;49.966;8.342;2023-03-14T11:45:49;2.47;;;0.40;;
61640;SDS011;62201;49.966;8.342;2023-03-14T11:48:29;0.93;;;0.38;;
61640;SDS011;62201;49.966;8.342;2023-03-14T11:51:02;0.85;;;0.30;;
61640;SDS011;62201;49.966;8.342;2023-03-14T11:56:11;0.60;;;0.20;;
61640;SDS011;62201;49.966;8.342;2023-03-14T11:59:07;2.38;;;0.15;;
61640;SDS011;62201;49.966;8.342;2023-03-14T12:01:43;2.15;;;0.10;;
61640;SDS011;62201;49.966;8.342;2023-03-14T12:04:53;2.40;;;0.15;;
61640;SDS011;62201;49.966;8.342;2023-03-14T12:10:19;0.20;;;0.10;;
61640;SDS011;62201;49.966;8.342;2023-03-14T12:12:45;0.57;;;0.10;;
61640;SDS011;62201;49.966;8.342;2023-03-14T12:15:19;3.22;;;0.30;;
61640;SDS011;62201;49.966;8.342;2023-03-14T12:17:46;1.23;;;0.28;;
61640;SDS011;62201;49.966;8.342;2023-03-14T12:20:18;0.93;;;0.13;;
61640;SDS011;62201;49.966;8.342;2023-03-14T12:22:47;2.08;;;0.20;;
61640;SDS011;62201;49.966;8.342;2023-03-14T12:25:16;0.20;;;0.00;;
61640;SDS011;62201;49.966;8.342;2023-03-14T12:30:24;0.60;;;0.10;;
61640;SDS011;62201;49.966;8.342;2023-03-14T12:38:25;0.08;;;0.08;;
61640;SDS011;62201;49.966;8.342;2023-03-14T12:43:53;1.25;;;0.10;;
61640;SDS011;62201;49.966;8.342;2023-03-14T12:46:25;0.43;;;0.20;;
61640;SDS011;62201;49.966;8.342;2023-03-14T12:51:33;1.83;;;0.10;;
61640;SDS011;62201;49.966;8.342;2023-03-14T12:59:37;0.25;;;0.10;;
61640;SDS011;62201;49.966;8.342;2023-03-14T13:04:34;0.65;;;0.10;;
61640;SDS011;62201;49.966;8.342;2023-03-14T13:07:11;0.55;;;0.10;;
61640;SDS011;62201;49.966;8.342;2023-03-14T13:10:01;1.95;;;0.10;;
61640;SDS011;62201;49.966;8.342;2023-03-14T13:12:30;0.10;;;0.10;;
61640;SDS011;62201;49.966;8.342;2023-03-14T13:15:19;0.30;;;0.13;;
61640;SDS011;62201;49.966;8.342;2023-03-14T13:17:54;0.20;;;0.08;;
61640;SDS011;62201;49.966;8.342;2023-03-14T13:20:28;0.20;;;0.10;;
61640;SDS011;62201;49.966;8.342;2023-03-14T13:22:56;0.93;;;0.20;;
61640;SDS011;62201;49.966;8.342;2023-03-14T13:25:22;6.35;;;0.50;;
61640;SDS011;62201;49.966;8.342;2023-03-14T13:27:47;0.77;;;0.20;;
61640;SDS011;62201;49.966;8.342;2023-03-14T13:32:43;0.60;;;0.30;;
61640;SDS011;62201;49.966;8.342;2023-03-14T13:35:25;1.23;;;0.27;;
61640;SDS011;62201;49.966;8.342;2023-03-14T13:37:59;1.63;;;0.17;;
61640;SDS011;62201;49.966;8.342;2023-03-14T13:40:30;2.00;;;0.73;;
61640;SDS011;62201;49.966;8.342;2023-03-14T13:43:06;0.40;;;0.20;;
61640;SDS011;62201;49.966;8.342;2023-03-14T13:46:03;0.80;;;0.30;;
61640;SDS011;62201;49.966;8.342;2023-03-14T13:48:29;1.85;;;0.50;;
61640;SDS011;62201;49.966;8.342;2023-03-14T13:51:00;0.77;;;0.40;;
61640;SDS011;62201;49.966;8.342;2023-03-14T13:53:30;0.75;;;0.57;;
61640;SDS011;62201;49.966;8.342;2023-03-14T13:55:55;1.17;;;0.77;;
61640;SDS011;62201;49.966;8.342;2023-03-14T13:58:25;1.65;;;0.50;;
61640;SDS011;62201;49.966;8.342;2023-03-14T14:00:56;1.60;;;0.70;;
61640;SDS011;62201;49.966;8.342;2023-03-14T14:03:24;2.38;;;0.60;;
61640;SDS011;62201;49.966;8.342;2023-03-14T14:05:50;1.15;;;0.40;;
61640;SDS011;62201;49.966;8.342;2023-03-14T14:08:15;0.55;;;0.50;;
61640;SDS011;62201;49.966;8.342;2023-03-14T14:10:41;3.33;;;0.77;;
61640;SDS011;62201;49.966;8.342;2023-03-14T14:13:08;1.10;;;0.70;;
61640;SDS011;62201;49.966;8.342;2023-03-14T14:15:40;1.45;;;0.70;;
61640;SDS011;62201;49.966;8.342;2023-03-14T14:18:09;0.73;;;0.40;;
61640;SDS011;62201;49.966;8.342;2023-03-14T14:20:41;0.75;;;0.40;;
61640;SDS011;62201;49.966;8.342;2023-03-14T14:23:11;1.17;;;0.52;;
61640;SDS011;62201;49.966;8.342;2023-03-14T14:25:38;0.98;;;0.50;;
61640;SDS011;62201;49.966;8.342;2023-03-14T14:31:02;0.82;;;0.50;;
61640;SDS011;62201;49.966;8.342;2023-03-14T14:34:01;1.23;;;0.32;;
61640;SDS011;62201;49.966;8.342;2023-03-14T14:36:39;2.20;;;0.50;;
61640;SDS011;62201;49.966;8.342;2023-03-14T14:39:17;1.10;;;0.45;;
61640;SDS011;62201;49.966;8.342;2023-03-14T14:41:49;1.77;;;0.73;;
61640;SDS011;62201;49.966;8.342;2023-03-14T14:44:17;0.93;;;0.70;;
61640;SDS011;62201;49.966;8.342;2023-03-14T14:46:54;1.88;;;0.70;;
61640;SDS011;62201;49.966;8.342;2023-03-14T14:49:20;2.40;;;0.80;;
61640;SDS011;62201;49.966;8.342;2023-03-14T14:51:52;3.58;;;2.30;;
61640;SDS011;62201;49.966;8.342;2023-03-14T14:54:42;1.90;;;1.38;;
61640;SDS011;62201;49.966;8.342;2023-03-14T14:57:19;7.47;;;0.70;;
61640;SDS011;62201;49.966;8.342;2023-03-14T14:59:49;3.38;;;1.17;;
61640;SDS011;62201;49.966;8.342;2023-03-14T15:05:17;2.70;;;0.70;;
61640;SDS011;62201;49.966;8.342;2023-03-14T15:07:48;2.47;;;0.73;;
61640;SDS011;62201;49.966;8.342;2023-03-14T15:10:15;3.85;;;0.70;;
61640;SDS011;62201;49.966;8.342;2023-03-14T15:12:42;3.10;;;0.82;;
61640;SDS011;62201;49.966;8.342;2023-03-14T15:15:08;4.00;;;0.75;;
61640;SDS011;62201;49.966;8.342;2023-03-14T15:17:34;4.25;;;0.82;;
61640;SDS011;62201;49.966;8.342;2023-03-14T15:20:01;0.75;;;0.57;;
61640;SDS011;62201;49.966;8.342;2023-03-14T15:22:30;0.65;;;0.35;;
61640;SDS011;62201;49.966;8.342;2023-03-14T15:24:56;0.47;;;0.40;;
61640;SDS011;62201;49.966;8.342;2023-03-14T15:27:21;1.75;;;0.50;;
61640;SDS011;62201;49.966;8.342;2023-03-14T15:29:47;1.40;;;0.43;;
61640;SDS011;62201;49.966;8.342;2023-03-14T15:32:13;0.65;;;0.30;;
61640;SDS011;62201;49.966;8.342;2023-03-14T15:34:41;0.20;;;0.20;;
61640;SDS011;62201;49.966;8.342;2023-03-14T15:37:14;4.82;;;0.40;;
61640;SDS011;62201;49.966;8.342;2023-03-14T15:39:44;0.70;;;0.45;;
61640;SDS011;62201;49.966;8.342;2023-03-14T15:42:10;5.40;;;0.50;;
61640;SDS011;62201;49.966;8.342;2023-03-14T15:44:35;3.17;;;0.50;;
61640;SDS011;62201;49.966;8.342;2023-03-14T15:47:01;3.03;;;0.40;;
61640;SDS011;62201;49.966;8.342;2023-03-14T15:49:27;1.70;;;0.40;;
61640;SDS011;62201;49.966;8.342;2023-03-14T15:51:53;0.90;;;0.40;;
61640;SDS011;62201;49.966;8.342;2023-03-14T15:54:18;2.97;;;0.70;;